Time;durP1;ratioP1;P1;durP2;ratioP2;P2;SDS_P1;SDS_P2;PMS_P1;PMS_P2;Temp;Humidity;BMP_temperature;BMP_pressure;BME280_temperature;BME280_humidity;BME280_pressure;Samples;Min_cycle;Max_cycle;Signal;HPM_P1;HPM_P2
2023/04/21 00:02:07;;;;;;;;;;;;;;;13.76;100.00;101941.97;5079031;28;727;-79
2023/04/21 00:04:34;;;;;;;;;;;;;;;13.73;100.00;101936.78;5078668;28;803;-79
2023/04/21 00:07:02;;;;;;;;;;;;;;;13.54;100.00;101939.16;5077760;28;783;-79
2023/04/21 00:09:28;;;;;;;;;;;;;;;13.60;100.00;101938.69;5078638;28;1220;-79
2023/04/21 00:11:54;;;;;;;;;;;;;;;13.52;100.00;101930.31;5077603;28;831;-79
2023/04/21 00:14:20;;;;;;;;;;;;;;;13.43;100.00;101937.25;5079305;28;815;-79
2023/04/21 00:16:46;;;;;;;;;;;;;;;13.43;100.00;101936.41;5078105;28;1969;-79
2023/04/21 00:19:12;;;;;;;;;;;;;;;13.44;100.00;101930.91;5078475;28;790;-79
2023/04/21 00:21:38;;;;;;;;;;;;;;;13.45;100.00;101926.38;5077222;28;1232;-79
2023/04/21 00:24:05;;;;;;;;;;;;;;;13.54;100.00;101925.66;5078455;28;873;-79
2023/04/21 00:26:31;;;;;;;;;;;;;;;13.59;100.00;101918.09;5077897;28;747;-79
2023/04/21 00:28:57;;;;;;;;;;;;;;;13.66;100.00;101926.56;5078054;28;811;-79
2023/04/21 00:31:23;;;;;;;;;;;;;;;13.67;100.00;101915.69;5078486;28;1201;-79
2023/04/21 00:33:49;;;;;;;;;;;;;;;13.70;100.00;101914.59;5076770;28;860;-79
2023/04/21 00:36:15;;;;;;;;;;;;;;;13.67;100.00;101909.44;5078071;28;886;-79
2023/04/21 00:38:41;;;;;;;;;;;;;;;13.66;100.00;101913.94;5076932;28;1953;-79
2023/04/21 00:41:07;;;;;;;;;;;;;;;13.71;100.00;101910.91;5077004;28;1275;-78
2023/04/21 00:43:33;;;;;;;;;;;;;;;13.74;100.00;101911.53;5078611;28;814;-79
2023/04/21 00:45:59;;;;;;;;;;;;;;;13.77;100.00;101907.75;5078635;28;736;-79
2023/04/21 00:48:25;;;;;;;;;;;;;;;13.67;100.00;101901.34;5076671;28;873;-79
2023/04/21 00:50:51;;;;;;;;;;;;;;;13.71;100.00;101910.91;5078172;28;1263;-79
2023/04/21 00:53:19;;;;;;;;;;;;;;;13.74;100.00;101906.13;5077907;28;872;-79
2023/04/21 00:55:45;;;;;;;;;;;;;;;13.70;100.00;101904.66;5076986;28;1297;-79
2023/04/21 00:58:11;;;;;;;;;;;;;;;13.70;100.00;101903.81;5077230;28;1927;-79
2023/04/21 01:00:38;;;;;;;;;;;;;;;13.73;100.00;101896.31;5078007;28;1201;-78
2023/04/21 01:03:05;;;;;;;;;;;;;;;13.68;100.00;101892.28;5078294;28;870;-79
2023/04/21 01:05:31;;;;;;;;;;;;;;;13.64;100.00;101888.09;5078216;28;802;-79
2023/04/21 01:07:57;;;;;;;;;;;;;;;13.68;100.00;101892.28;5077504;28;826;-79
2023/04/21 01:10:23;;;;;;;;;;;;;;;13.71;100.00;101879.41;5076293;28;1295;-79
2023/04/21 01:12:49;;;;;;;;;;;;;;;13.56;100.00;101879.72;5078214;28;726;-79
2023/04/21 01:15:16;;;;;;;;;;;;;;;13.59;100.00;101882.19;5078108;28;913;-79
2023/04/21 01:17:42;;;;;;;;;;;;;;;13.56;100.00;101879.72;5077450;28;1965;-79
2023/04/21 01:20:12;;;;;;;;;;;;;;;13.58;100.00;101881.34;5077816;28;1267;-79
2023/04/21 01:22:39;;;;;;;;;;;;;;;13.43;100.00;101877.09;5078130;28;787;-79
2023/04/21 01:25:05;;;;;;;;;;;;;;;13.52;100.00;101876.41;5093521;28;770;-79
2023/04/21 01:27:32;;;;;;;;;;;;;;;13.53;100.00;101872.72;5077236;28;866;-79
2023/04/21 01:29:58;;;;;;;;;;;;;;;13.59;100.00;101874.97;5076825;28;1189;-79
2023/04/21 01:32:28;;;;;;;;;;;;;;;13.62;100.00;101876.56;5077666;28;736;-79
2023/04/21 01:34:55;;;;;;;;;;;;;;;13.48;100.00;101880.31;5077746;28;874;-79
2023/04/21 01:37:25;;;;;;;;;;;;;;;13.49;100.00;101874.81;5077148;28;1890;-79
2023/04/21 01:39:54;;;;;;;;;;;;;;;13.45;100.00;101870.63;5076215;28;1320;-79
2023/04/21 01:42:23;;;;;;;;;;;;;;;13.52;100.00;101871.00;5076551;28;900;-79
2023/04/21 01:44:49;;;;;;;;;;;;;;;13.45;100.00;101867.91;5076559;28;1014;-79
2023/04/21 01:47:16;;;;;;;;;;;;;;;13.46;100.00;101866.94;5077052;28;832;-79
2023/04/21 01:49:42;;;;;;;;;;;;;;;13.43;100.00;101863.63;5076413;28;1252;-79
2023/04/21 01:52:08;;;;;;;;;;;;;;;13.33;100.00;101871.56;5077731;28;787;-79
2023/04/21 01:54:35;;;;;;;;;;;;;;;13.34;100.00;101867.88;5077636;28;719;-79
2023/04/21 01:57:01;;;;;;;;;;;;;;;13.27;100.00;101863.94;5075793;28;1894;-79
2023/04/21 01:59:27;;;;;;;;;;;;;;;13.40;100.00;101864.72;5077280;28;1177;-79
2023/04/21 02:01:53;;;;;;;;;;;;;;;13.38;100.00;101866.69;5077741;28;787;-79
2023/04/21 02:04:19;;;;;;;;;;;;;;;13.42;100.00;101862.78;5077303;28;811;-79
2023/04/21 02:06:45;;;;;;;;;;;;;;;13.42;100.00;101862.78;5077023;28;729;-79
2023/04/21 02:09:11;;;;;;;;;;;;;;;13.38;100.00;101858.59;5077150;28;799;-79
2023/04/21 02:11:37;;;;;;;;;;;;;;;13.36;100.00;101854.28;5075563;28;1275;-79
2023/04/21 02:14:03;;;;;;;;;;;;;;;13.29;100.00;101859.31;5077131;28;850;-79
2023/04/21 02:16:29;;;;;;;;;;;;;;;13.14;100.00;101855.88;5077243;28;823;-79
2023/04/21 02:18:56;;;;;;;;;;;;;;;13.11;100.00;101858.81;5079841;28;1956;-79
2023/04/21 02:21:23;;;;;;;;;;;;;;;13.15;100.00;101854.03;5080904;28;1184;-79
2023/04/21 02:23:50;;;;;;;;;;;;;;;13.23;100.00;101856.22;5080971;28;885;-79
2023/04/21 02:26:17;;;;;;;;;;;;;;;13.10;100.00;101853.56;5096241;28;929;-79
2023/04/21 02:28:43;;;;;;;;;;;;;;;13.14;100.00;101853.19;5080483;28;854;-79
2023/04/21 02:31:09;;;;;;;;;;;;;;;13.20;100.00;101851.91;5080819;28;1173;-79
2023/04/21 02:33:35;;;;;;;;;;;;;;;13.17;100.00;101852.09;5080553;28;917;-79
2023/04/21 02:36:01;;;;;;;;;;;;;;;13.19;100.00;101850.19;5080568;28;783;-79
2023/04/21 02:38:27;;;;;;;;;;;;;;;13.28;100.00;101849.50;5079144;28;1969;-79
2023/04/21 02:40:53;;;;;;;;;;;;;;;13.28;100.00;101849.50;5080983;28;1256;-79
2023/04/21 02:43:19;;;;;;;;;;;;;;;13.32;100.00;101852.81;5081196;28;893;-79
2023/04/21 02:45:45;;;;;;;;;;;;;;;13.32;100.00;101848.28;5080938;28;783;-79
2023/04/21 02:48:11;;;;;;;;;;;;;;;13.16;100.00;101843.16;5079895;28;803;-79
2023/04/21 02:50:37;;;;;;;;;;;;;;;13.24;100.00;101849.84;5080056;28;1192;-79
2023/04/21 02:53:03;;;;;;;;;;;;;;;13.16;100.00;101844.97;5079489;28;829;-79
2023/04/21 02:55:29;;;;;;;;;;;;;;;13.12;100.00;101840.81;5081037;28;877;-79
2023/04/21 02:57:55;;;;;;;;;;;;;;;13.15;100.00;101843.28;5079899;28;1953;-79
2023/04/21 03:00:21;;;;;;;;;;;;;;;13.18;100.00;101845.75;5079203;28;1296;-79
2023/04/21 03:02:47;;;;;;;;;;;;;;;13.17;100.00;101836.81;5079547;28;908;-79
2023/04/21 03:05:13;;;;;;;;;;;;;;;13.19;100.00;101836.72;5080512;28;798;-79
2023/04/21 03:07:39;;;;;;;;;;;;;;;13.18;100.00;101843.06;5080070;28;799;-79
2023/04/21 03:10:06;;;;;;;;;;;;;;;13.22;100.00;101843.72;5080112;28;1188;-79
2023/04/21 03:12:31;;;;;;;;;;;;;;;13.20;100.00;101843.84;5079983;28;548;-79
2023/04/21 03:14:57;;;;;;;;;;;;;;;13.19;100.00;101850.19;5078240;28;894;-79
2023/04/21 03:17:24;;;;;;;;;;;;;;;13.23;100.00;101845.44;5078376;28;1955;-79
2023/04/21 03:19:50;;;;;;;;;;;;;;;13.26;100.00;101847.88;5080172;28;1181;-79
2023/04/21 03:22:16;;;;;;;;;;;;;;;13.23;100.00;101846.28;5080292;28;795;-79
2023/04/21 03:24:42;;;;;;;;;;;;;;;13.25;100.00;101852.41;5080103;28;889;-79
2023/04/21 03:27:08;;;;;;;;;;;;;;;13.20;100.00;101849.22;5078961;28;803;-79
2023/04/21 03:29:35;;;;;;;;;;;;;;;13.29;100.00;101847.66;5079672;28;1264;-79
2023/04/21 03:32:01;;;;;;;;;;;;;;;12.88;100.00;101849.78;5078294;28;840;-79
2023/04/21 03:34:26;;;;;;;;;;;;;;;13.11;100.00;101844.50;5079557;28;886;-79
2023/04/21 03:36:52;;;;;;;;;;;;;;;13.14;100.00;101849.63;5079029;28;834;-79
2023/04/21 03:39:18;;;;;;;;;;;;;;;13.21;100.00;101856.31;5079470;28;1902;-79
2023/04/21 03:41:44;;;;;;;;;;;;;;;13.14;100.00;101855.03;5078960;28;1165;-79
2023/04/21 03:44:10;;;;;;;;;;;;;;;13.20;100.00;101846.53;5078386;28;852;-79
2023/04/21 03:46:36;;;;;;;;;;;;;;;13.16;100.00;101856.63;5078674;28;819;-79
2023/04/21 03:49:02;;;;;;;;;;;;;;;13.19;100.00;101853.75;5079385;28;897;-79
2023/04/21 03:51:28;;;;;;;;;;;;;;;13.15;100.00;101859.44;5079765;28;1181;-79
2023/04/21 03:53:54;;;;;;;;;;;;;;;13.07;100.00;101851.91;5079763;28;846;-79
2023/04/21 03:56:20;;;;;;;;;;;;;;;12.98;100.00;101857.13;5079741;28;921;-79
2023/04/21 03:58:46;;;;;;;;;;;;;;;12.93;100.00;101855.66;5078104;28;1965;-79
2023/04/21 04:01:12;;;;;;;;;;;;;;;12.85;100.00;101855.34;5078318;28;1176;-79
2023/04/21 04:03:38;;;;;;;;;;;;;;;12.88;100.00;101852.47;5079675;28;720;-79
2023/04/21 04:06:04;;;;;;;;;;;;;;;12.96;100.00;101849.19;5077623;28;966;-79
2023/04/21 04:08:30;;;;;;;;;;;;;;;12.96;100.00;101861.78;5078253;28;803;-79
2023/04/21 04:10:56;;;;;;;;;;;;;;;13.05;100.00;101858.41;5078771;28;1283;-79
2023/04/21 04:13:23;;;;;;;;;;;;;;;13.13;100.00;101858.69;5077792;28;883;-79
2023/04/21 04:15:49;;;;;;;;;;;;;;;13.13;100.00;101864.09;5079350;28;664;-79
2023/04/21 04:18:15;;;;;;;;;;;;;;;13.12;100.00;101857.84;5078464;28;1894;-79
2023/04/21 04:20:41;;;;;;;;;;;;;;;13.05;100.00;101863.78;5079340;28;1212;-79
2023/04/21 04:23:07;;;;;;;;;;;;;;;13.02;100.00;101864.03;5078943;28;858;-79
2023/04/21 04:25:33;;;;;;;;;;;;;;;13.11;100.00;101861.50;5079013;28;819;-79
2023/04/21 04:27:59;;;;;;;;;;;;;;;13.06;100.00;101866.38;5077042;28;896;-79
2023/04/21 04:30:28;;;;;;;;;;;;;;;13.05;100.00;101869.19;5078990;28;1200;-79
2023/04/21 04:32:56;;;;;;;;;;;;;;;13.15;100.00;101862.13;5077922;28;860;-79
2023/04/21 04:35:22;;;;;;;;;;;;;;;13.14;100.00;101858.56;5078112;28;888;-79
2023/04/21 04:37:49;;;;;;;;;;;;;;;13.09;100.00;101857.22;5079699;28;1950;-79
2023/04/21 04:40:15;;;;;;;;;;;;;;;13.03;100.00;101865.75;5080622;28;1228;-79
2023/04/21 04:42:41;;;;;;;;;;;;;;;13.06;100.00;101860.13;5079535;28;824;-79
2023/04/21 04:45:08;;;;;;;;;;;;;;;13.08;100.00;101869.84;5078786;28;856;-79
2023/04/21 04:47:34;;;;;;;;;;;;;;;13.17;100.00;101861.06;5080063;28;751;-79
2023/04/21 04:50:00;;;;;;;;;;;;;;;12.84;100.00;101869.81;5078984;28;1351;-79
2023/04/21 04:52:26;;;;;;;;;;;;;;;12.95;100.00;101871.69;5079098;28;839;-79
2023/04/21 04:54:52;;;;;;;;;;;;;;;12.79;100.00;101872.00;5080461;28;897;-79
2023/04/21 04:57:18;;;;;;;;;;;;;;;12.93;100.00;101871.81;5079723;28;815;-79
2023/04/21 04:59:45;;;;;;;;;;;;;;;12.93;100.00;101876.34;5080194;28;1914;-79
2023/04/21 05:02:11;;;;;;;;;;;;;;;12.71;100.00;101865.44;5079197;28;844;-79
2023/04/21 05:04:38;;;;;;;;;;;;;;;12.86;100.00;101864.28;5079700;28;821;-79
2023/04/21 05:07:06;;;;;;;;;;;;;;;12.66;100.00;101864.91;5080008;28;905;-79
2023/04/21 05:09:33;;;;;;;;;;;;;;;12.96;100.00;101869.88;5080424;28;1181;-79
2023/04/21 05:12:00;;;;;;;;;;;;;;;12.98;100.00;101870.59;5078581;28;966;-79
2023/04/21 05:14:26;;;;;;;;;;;;;;;13.02;100.00;101862.19;5080438;28;806;-79
2023/04/21 05:16:52;;;;;;;;;;;;;;;13.04;100.00;101868.31;5080121;28;791;-79
2023/04/21 05:19:18;;;;;;;;;;;;;;;13.12;100.00;101863.22;5080176;28;1955;-79
2023/04/21 05:21:44;;;;;;;;;;;;;;;12.97;100.00;101858.97;5080107;28;1259;-79
2023/04/21 05:24:10;;;;;;;;;;;;;;;13.17;100.00;101863.75;5079813;28;744;-79
2023/04/21 05:26:36;;;;;;;;;;;;;;;13.15;100.00;101860.28;5079196;28;905;-79
2023/04/21 05:29:02;;;;;;;;;;;;;;;13.06;100.00;101857.44;5080425;28;823;-79
2023/04/21 05:31:28;;;;;;;;;;;;;;;13.12;100.00;101860.53;5078890;28;1241;-80
2023/04/21 05:33:54;;;;;;;;;;;;;;;13.27;100.00;101858.53;5077472;28;939;-80
2023/04/21 05:36:20;;;;;;;;;;;;;;;13.09;100.00;101862.59;5077789;28;961;-80
2023/04/21 05:38:46;;;;;;;;;;;;;;;13.14;100.00;101866.66;5078772;28;2230;-80
2023/04/21 05:41:12;;;;;;;;;;;;;;;13.15;100.00;101876.47;5079171;28;1267;-80
2023/04/21 05:43:38;;;;;;;;;;;;;;;13.12;100.00;101871.31;5078534;28;854;-80
2023/04/21 05:46:08;;;;;;;;;;;;;;;13.11;100.00;101874.13;5079517;28;839;-80
2023/04/21 05:48:35;;;;;;;;;;;;;;;13.16;100.00;101866.53;5079022;28;795;-80
2023/04/21 05:51:09;;;;;;;;;;;;;;;13.23;100.00;101864.28;5079743;28;1271;-80
2023/04/21 05:53:35;;;;;;;;;;;;;;;13.12;100.00;101865.91;5081154;28;909;-79
2023/04/21 05:56:01;;;;;;;;;;;;;;;13.16;100.00;101870.09;5081078;28;859;-82
2023/04/21 05:58:27;;;;;;;;;;;;;;;13.30;100.00;101863.72;5081940;28;1987;-80
2023/04/21 06:00:53;;;;;;;;;;;;;;;13.12;100.00;101863.22;5082232;28;1173;-80
2023/04/21 06:03:19;;;;;;;;;;;;;;;13.25;100.00;101859.63;5083272;28;897;-82
2023/04/21 06:05:46;;;;;;;;;;;;;;;13.42;100.00;101859.22;5080986;28;828;-83
2023/04/21 06:08:12;;;;;;;;;;;;;;;13.47;100.00;101857.91;5082412;28;882;-79
2023/04/21 06:10:38;;;;;;;;;;;;;;;13.47;100.00;101848.97;5082424;28;1295;-83
2023/04/21 06:13:04;;;;;;;;;;;;;;;13.56;100.00;101841.97;5082587;28;909;-83
2023/04/21 06:15:30;;;;;;;;;;;;;;;13.76;100.00;101852.06;5083142;28;889;-80
2023/04/21 06:17:56;;;;;;;;;;;;;;;13.73;100.00;101855.03;5083752;28;827;-82
2023/04/21 06:20:22;;;;;;;;;;;;;;;13.77;100.00;101848.44;5083452;28;1878;-81
2023/04/21 06:22:48;;;;;;;;;;;;;;;13.86;100.00;101842.28;5083046;28;800;-82
2023/04/21 06:25:14;;;;;;;;;;;;;;;13.87;100.00;101843.19;5084290;28;851;-82
2023/04/21 06:27:40;;;;;;;;;;;;;;;13.86;100.00;101852.22;5083171;28;870;-83
2023/04/21 06:30:07;;;;;;;;;;;;;;;13.81;100.00;101852.59;5084870;28;1173;-82
2023/04/21 06:32:33;;;;;;;;;;;;;;;13.50;100.00;101846.03;5082759;28;842;-81
2023/04/21 06:34:59;;;;;;;;;;;;;;;14.02;100.00;101840.09;5082474;28;928;-81
2023/04/21 06:37:24;;;;;;;;;;;;;;;13.84;100.00;101846.94;5082899;28;851;-82
2023/04/21 06:39:50;;;;;;;;;;;;;;;13.93;100.00;101848.06;5082515;28;1969;-80
2023/04/21 06:42:17;;;;;;;;;;;;;;;14.23;100.00;101842.06;5098432;28;1005;-81
2023/04/21 06:44:42;;;;;;;;;;;;;;;14.14;100.00;101840.13;5084355;28;718;-80
2023/04/21 06:47:09;;;;;;;;;;;;;;;14.25;100.00;101843.66;5083164;28;889;-80
2023/04/21 06:49:36;;;;;;;;;;;;;;;14.45;100.00;101825.03;5083205;28;1303;-81
2023/04/21 06:52:03;;;;;;;;;;;;;;;14.77;100.00;101830.53;5079557;28;895;-83
2023/04/21 06:54:29;;;;;;;;;;;;;;;14.76;100.00;101824.28;5081879;28;661;-83
2023/04/21 06:56:56;;;;;;;;;;;;;;;14.93;100.00;101821.00;5081688;28;839;-83
2023/04/21 06:59:22;;;;;;;;;;;;;;;14.97;100.00;101826.16;5081945;28;1889;-84
2023/04/21 07:01:51;;;;;;;;;;;;;;;14.95;100.00;101823.59;5080802;28;1296;-85
2023/04/21 07:04:17;;;;;;;;;;;;;;;15.00;100.00;101815.97;5080153;28;852;-85
2023/04/21 07:06:44;;;;;;;;;;;;;;;14.89;100.00;101807.88;5097061;28;848;-83
2023/04/21 07:09:10;;;;;;;;;;;;;;;15.29;100.00;101815.34;5080752;28;978;-83
2023/04/21 07:11:36;;;;;;;;;;;;;;;15.35;100.00;101809.44;5083828;28;1197;-82
2023/04/21 07:14:02;;;;;;;;;;;;;;;15.39;100.00;101813.56;5083052;28;901;-83
2023/04/21 07:16:28;;;;;;;;;;;;;;;15.41;100.00;101798.94;5081640;28;819;-82
2023/04/21 07:18:54;;;;;;;;;;;;;;;15.39;100.00;101798.22;5080003;28;1890;-83
2023/04/21 07:21:20;;;;;;;;;;;;;;;15.39;100.00;101805.47;5081668;28;1264;-83
2023/04/21 07:23:46;;;;;;;;;;;;;;;15.54;100.00;101797.91;5081067;28;643;-82
2023/04/21 07:26:12;;;;;;;;;;;;;;;15.83;100.00;101798.06;5096859;28;899;-82
2023/04/21 07:28:39;;;;;;;;;;;;;;;15.84;100.00;101799.81;5081442;28;805;-80
2023/04/21 07:31:06;;;;;;;;;;;;;;;15.83;100.00;101790.84;5081740;28;1165;-81
2023/04/21 07:33:31;;;;;;;;;;;;;;;16.03;100.00;101781.81;5083585;28;901;-82
2023/04/21 07:35:58;;;;;;;;;;;;;;;15.93;100.00;101790.88;5099129;28;762;-81
2023/04/21 07:38:24;;;;;;;;;;;;;;;15.90;100.00;101783.03;5082329;28;732;-81
2023/04/21 07:40:49;;;;;;;;;;;;;;;16.07;100.00;101787.81;5099550;28;1922;-81
2023/04/21 07:43:15;;;;;;;;;;;;;;;16.18;100.00;101793.13;5082615;28;846;-81
2023/04/21 07:45:41;;;;;;;;;;;;;;;16.29;100.00;101784.03;5082745;28;830;-80
2023/04/21 07:48:07;;;;;;;;;;;;;;;16.41;100.00;101795.59;5082640;28;898;-81
2023/04/21 07:50:36;;;;;;;;;;;;;;;16.46;100.00;101799.63;5083547;28;1255;-81
2023/04/21 07:53:04;;;;;;;;;;;;;;;16.69;100.00;101794.00;5084261;28;889;-83
2023/04/21 07:55:30;;;;;;;;;;;;;;;16.71;100.00;101794.72;5084372;28;858;-80
2023/04/21 07:57:56;;;;;;;;;;;;;;;16.83;100.00;101799.88;5083394;28;806;-82
2023/04/21 08:00:22;;;;;;;;;;;;;;;16.72;100.00;101783.75;5083695;28;1875;-82
2023/04/21 08:02:48;;;;;;;;;;;;;;;16.84;100.00;101793.47;5082566;28;932;-83
2023/04/21 08:05:14;;;;;;;;;;;;;;;17.01;100.00;101785.59;5082862;28;838;-83
2023/04/21 08:07:40;;;;;;;;;;;;;;;17.08;100.00;101779.47;5082932;28;795;-83
2023/04/21 08:10:07;;;;;;;;;;;;;;;17.43;100.00;101778.03;5081786;28;1256;-82
2023/04/21 08:12:32;;;;;;;;;;;;;;;17.26;100.00;101776.06;5083759;28;615;-82
2023/04/21 08:15:04;;;;;;;;;;;;;;;17.29;100.00;101779.31;5081245;28;900;-82
2023/04/21 08:17:30;;;;;;;;;;;;;;;17.01;100.00;101777.47;5080988;28;778;-82
2023/04/21 08:19:56;;;;;;;;;;;;;;;17.38;100.00;101772.19;5082496;28;1902;-82
2023/04/21 08:22:22;;;;;;;;;;;;;;;17.66;100.00;101773.13;5081318;28;1000;-82
2023/04/21 08:24:48;;;;;;;;;;;;;;;17.47;100.00;101772.16;5083314;28;840;-82
2023/04/21 08:27:14;;;;;;;;;;;;;;;17.50;100.00;101773.72;5098072;28;852;-82
2023/04/21 08:29:40;;;;;;;;;;;;;;;17.71;100.00;101769.03;5081846;28;1271;-82
2023/04/21 08:32:06;;;;;;;;;;;;;;;17.92;100.00;101770.66;5082843;28;882;-83
2023/04/21 08:34:33;;;;;;;;;;;;;;;18.09;99.87;101774.44;5081488;28;819;-83
2023/04/21 08:36:59;;;;;;;;;;;;;;;18.30;94.31;101758.78;5080156;28;803;-83
2023/04/21 08:39:25;;;;;;;;;;;;;;;18.28;93.31;101761.59;5097911;28;1882;-84
2023/04/21 08:41:52;;;;;;;;;;;;;;;18.37;90.89;101762.56;5081928;28;1361;-84
2023/04/21 08:44:19;;;;;;;;;;;;;;;18.48;91.13;101761.50;5078277;28;886;-85
2023/04/21 08:46:49;;;;;;;;;;;;;;;18.29;89.43;101763.34;5081602;28;827;-81
2023/04/21 08:49:18;;;;;;;;;;;;;;;18.39;89.81;101762.44;5082873;28;869;-82
2023/04/21 08:51:45;;;;;;;;;;;;;;;18.66;90.78;101758.84;5082418;28;1276;-82
2023/04/21 08:54:11;;;;;;;;;;;;;;;18.20;86.21;101757.97;5080782;28;847;-83
2023/04/21 08:56:39;;;;;;;;;;;;;;;18.62;83.52;101767.28;5079741;28;894;-84
2023/04/21 08:59:05;;;;;;;;;;;;;;;18.61;85.10;101765.56;5080264;28;1890;-84
2023/04/21 09:01:31;;;;;;;;;;;;;;;18.61;82.66;101756.56;5081532;28;1240;-85
2023/04/21 09:04:17;;;;;;;;;;;;;;;18.72;79.29;101761.81;5080408;28;1106;-82
2023/04/21 09:06:44;;;;;;;;;;;;;;;18.69;83.94;101766.72;5081471;28;933;-80
2023/04/21 09:09:11;;;;;;;;;;;;;;;18.89;83.19;101765.56;5079441;28;836;-87
2023/04/21 09:11:37;;;;;;;;;;;;;;;18.95;81.90;101756.75;5096474;27;1205;-86
2023/04/21 09:14:03;;;;;;;;;;;;;;;19.21;79.47;101756.81;5097092;28;841;-83
2023/04/21 09:16:32;;;;;;;;;;;;;;;19.00;77.47;101759.03;5081806;28;831;-81
2023/04/21 09:18:59;;;;;;;;;;;;;;;19.19;76.81;101753.41;5080876;28;860;-82
2023/04/21 09:21:28;;;;;;;;;;;;;;;19.36;77.19;101759.81;5083435;28;1209;-82
2023/04/21 09:23:56;;;;;;;;;;;;;;;19.49;72.96;101746.66;5082917;28;882;-81
2023/04/21 09:26:22;;;;;;;;;;;;;;;19.33;72.42;101755.56;5082619;28;865;-82
2023/04/21 09:28:51;;;;;;;;;;;;;;;19.20;69.83;101755.13;5083004;28;706;-81
2023/04/21 09:31:23;;;;;;;;;;;;;;;19.28;71.03;101746.19;5083516;28;1157;-82
2023/04/21 09:33:52;;;;;;;;;;;;;;;19.49;69.17;101746.66;5080399;28;884;-83
2023/04/21 09:36:24;;;;;;;;;;;;;;;19.69;68.89;101740.03;5082158;28;740;-83
2023/04/21 09:38:58;;;;;;;;;;;;;;;19.81;67.27;101747.91;5080034;28;978;-83
2023/04/21 09:41:24;;;;;;;;;;;;;;;19.89;65.45;101743.38;5081332;28;2223;-83
2023/04/21 09:43:50;;;;;;;;;;;;;;;19.97;65.31;101732.53;5081177;28;827;-83
2023/04/21 09:46:18;;;;;;;;;;;;;;;19.70;64.99;101736.28;5081129;28;823;-83
2023/04/21 09:48:46;;;;;;;;;;;;;;;19.88;65.49;101738.09;5079749;28;882;-82
2023/04/21 09:51:15;;;;;;;;;;;;;;;20.12;65.12;101731.88;5079665;28;1201;-83
2023/04/21 09:53:43;;;;;;;;;;;;;;;20.43;66.14;101724.00;5080764;28;898;-84
2023/04/21 09:56:14;;;;;;;;;;;;;;;20.45;63.90;101719.25;5078921;28;842;-84
2023/04/21 09:59:05;;;;;;;;;;;;;;;20.87;63.91;101710.97;5080097;28;644;-84
2023/04/21 10:01:34;;;;;;;;;;;;;;;20.70;61.22;101712.81;5079004;28;1863;-81
2023/04/21 10:04:01;;;;;;;;;;;;;;;20.88;61.78;101697.16;5095554;28;883;-82
2023/04/21 10:06:27;;;;;;;;;;;;;;;21.06;60.18;101705.19;5080306;28;728;-84
2023/04/21 10:08:56;;;;;;;;;;;;;;;21.07;60.14;101704.16;5080433;28;820;-83
2023/04/21 10:11:23;;;;;;;;;;;;;;;21.25;59.14;101703.97;5079689;28;1189;-85
2023/04/21 10:13:49;;;;;;;;;;;;;;;21.34;59.15;101692.06;5080502;28;823;-80
2023/04/21 10:16:18;;;;;;;;;;;;;;;21.20;58.62;101699.03;5079126;28;851;-86
2023/04/21 10:18:45;;;;;;;;;;;;;;;21.48;58.58;101683.16;5095216;28;961;-83
2023/04/21 10:21:18;;;;;;;;;;;;;;;21.39;58.00;101686.06;5078751;28;1953;-86
2023/04/21 10:23:46;;;;;;;;;;;;;;;21.54;57.97;101678.88;5076851;28;905;-79
2023/04/21 10:26:15;;;;;;;;;;;;;;;21.54;55.54;101684.34;5078934;28;819;-79
2023/04/21 10:28:58;;;;;;;;;;;;;;;21.81;56.08;101679.44;5076680;28;891;-80
2023/04/21 10:31:35;;;;;;;;;;;;;;;21.85;54.04;101680.81;5079148;28;1169;-82
2023/04/21 10:34:07;;;;;;;;;;;;;;;21.91;53.57;101672.75;5078713;28;943;-81
2023/04/21 10:36:49;;;;;;;;;;;;;;;22.22;53.10;101663.75;5080256;28;773;-81
2023/04/21 10:39:44;;;;;;;;;;;;;;;22.26;50.75;101656.91;5084632;28;940;-82
2023/04/21 10:42:19;;;;;;;;;;;;;;;22.63;50.20;101658.88;5086093;28;804;-82
2023/04/21 10:44:57;;;;;;;;;;;;;;;22.56;49.31;101655.16;5085513;28;920;-82
2023/04/21 10:47:26;;;;;;;;;;;;;;;22.54;49.85;101644.41;5084386;28;937;-82
2023/04/21 10:49:55;;;;;;;;;;;;;;;22.62;48.83;101651.72;5085483;28;1295;-81
2023/04/21 10:52:21;;;;;;;;;;;;;;;22.55;48.63;101640.63;5083770;28;910;-81
2023/04/21 10:54:48;;;;;;;;;;;;;;;22.61;48.44;101637.19;5083388;28;954;-81
2023/04/21 10:57:19;;;;;;;;;;;;;;;22.94;49.18;101630.59;5083550;28;857;-82
2023/04/21 10:59:46;;;;;;;;;;;;;;;23.04;47.69;101631.19;5083684;28;1893;-81
2023/04/21 11:02:15;;;;;;;;;;;;;;;23.00;46.44;101638.91;5084337;28;922;-83
2023/04/21 11:04:46;;;;;;;;;;;;;;;23.24;46.74;101634.25;5082597;28;795;-83
2023/04/21 11:07:24;;;;;;;;;;;;;;;23.37;46.56;101627.06;5083017;28;772;-83
2023/04/21 11:10:03;;;;;;;;;;;;;;;23.31;45.47;101618.78;5084389;28;1319;-82
2023/04/21 11:12:32;;;;;;;;;;;;;;;23.44;45.16;101618.94;5083103;28;618;-83
2023/04/21 11:14:58;;;;;;;;;;;;;;;23.39;45.83;101615.91;5081392;28;903;-85
2023/04/21 11:17:24;;;;;;;;;;;;;;;23.72;45.73;101608.19;5083989;28;815;-84
2023/04/21 11:19:55;;;;;;;;;;;;;;;24.10;45.05;101611.63;5083194;28;1894;-85
2023/04/21 11:22:23;;;;;;;;;;;;;;;23.80;44.30;101613.56;5098303;28;906;-86
2023/04/21 11:24:53;;;;;;;;;;;;;;;23.90;42.46;101602.31;5083294;28;905;-86
2023/04/21 11:27:21;;;;;;;;;;;;;;;23.85;40.82;101599.28;5081782;28;895;-86
2023/04/21 11:29:48;;;;;;;;;;;;;;;23.58;42.82;101592.59;5084739;28;1280;-86
2023/04/21 11:32:15;;;;;;;;;;;;;;;23.68;42.60;101588.53;5082182;28;869;-86
2023/04/21 11:34:41;;;;;;;;;;;;;;;23.88;42.74;101586.03;5083803;28;844;-86
2023/04/21 11:37:09;;;;;;;;;;;;;;;24.09;42.50;101577.03;5082380;28;936;-86
2023/04/21 11:39:39;;;;;;;;;;;;;;;24.09;41.02;101568.81;5082480;28;1189;-86
2023/04/21 11:42:05;;;;;;;;;;;;;;;24.72;40.53;101561.59;5084949;28;795;-86
2023/04/21 11:44:34;;;;;;;;;;;;;;;24.76;41.36;101562.88;5083414;28;895;-86
2023/04/21 11:47:14;;;;;;;;;;;;;;;25.09;40.18;101554.09;5083668;28;784;-86
2023/04/21 11:49:50;;;;;;;;;;;;;;;24.94;40.90;101554.16;5097170;28;1894;-85
2023/04/21 11:52:23;;;;;;;;;;;;;;;25.09;40.29;101543.09;5081198;28;670;-85
2023/04/21 11:55:04;;;;;;;;;;;;;;;25.09;40.45;101551.34;5080392;28;876;-85
2023/04/21 11:57:31;;;;;;;;;;;;;;;24.82;40.64;101542.88;5080663;28;538;-84
2023/04/21 12:00:03;;;;;;;;;;;;;;;24.81;39.86;101543.09;5082682;28;1298;-85
2023/04/21 12:02:31;;;;;;;;;;;;;;;24.99;40.10;101551.66;5081830;28;544;-85
2023/04/21 12:05:05;;;;;;;;;;;;;;;24.16;37.86;101544.19;5081965;28;807;-87
2023/04/21 12:07:33;;;;;;;;;;;;;;;23.57;36.11;101534.22;5083170;28;564;-82
2023/04/21 12:10:00;;;;;;;;;;;;;;;23.36;36.90;101536.91;5080918;28;1902;-84
2023/04/21 12:12:26;;;;;;;;;;;;;;;22.95;36.84;101539.28;5081898;28;589;-88
2023/04/21 12:14:52;;;;;;;;;;;;;;;23.12;37.68;101536.16;5081085;28;732;-86
2023/04/21 12:17:19;;;;;;;;;;;;;;;22.60;36.96;101544.34;5079885;28;791;-85
2023/04/21 12:19:45;;;;;;;;;;;;;;;22.51;36.86;101523.59;5080611;28;1228;-85
2023/04/21 12:22:13;;;;;;;;;;;;;;;22.98;36.68;101520.59;5079934;28;851;-85
2023/04/21 12:24:40;;;;;;;;;;;;;;;22.88;36.31;101504.44;5083018;28;893;-86
2023/04/21 12:27:07;;;;;;;;;;;;;;;23.59;36.11;101501.19;5081442;28;792;-85
2023/04/21 12:29:37;;;;;;;;;;;;;;;23.99;36.12;101506.09;5081553;28;1225;-83
2023/04/21 12:32:04;;;;;;;;;;;;;;;24.63;36.24;101504.34;5081128;28;1959;-85
2023/04/21 12:34:30;;;;;;;;;;;;;;;24.15;35.47;101499.47;5082929;28;819;-85
2023/04/21 12:36:56;;;;;;;;;;;;;;;24.17;35.95;101510.22;5081938;28;824;-87
2023/04/21 12:39:22;;;;;;;;;;;;;;;24.58;35.32;101500.31;5098105;28;795;-85
2023/04/21 12:41:48;;;;;;;;;;;;;;;24.83;34.78;101491.59;5097071;28;1296;-86
2023/04/21 12:44:15;;;;;;;;;;;;;;;24.72;34.94;101490.25;5080536;28;940;-86
2023/04/21 12:46:41;;;;;;;;;;;;;;;25.06;33.52;101472.97;5082584;28;826;-86
2023/04/21 12:49:08;;;;;;;;;;;;;;;24.95;33.11;101479.00;5079404;28;771;-83